Time,TemperatureF,DewpointF,PressureIn,WindDirection,WindDirectionDegrees,WindSpeedMPH,WindSpeedGustMPH,Humidity,HourlyPrecipIn,Conditions,Clouds,dailyrainin,SoftwareType,DateUTC
2013-04-15 00:00:00,48.5,45.4,29.88,East,92,1.0,1.0,89,0.00,,,0.00,Wunderground v.1.15,2013-04-15 07:00:00,
2013-04-15 00:05:00,48.2,45.4,29.88,North,355,1.0,1.0,90,0.00,,,0.00,Wunderground v.1.15,2013-04-15 07:05:00,
2013-04-15 00:45:00,47.5,45.3,29.87,West,274,1.0,7.0,92,0.00,,,0.00,Wunderground v.1.15,2013-04-15 07:45:00,
2013-04-15 00:50:00,47.5,45.3,29.87,West,271,1.0,1.0,92,0.00,,,0.00,Wunderground v.1.15,2013-04-15 07:50:00,
2013-04-15 00:55:00,47.5,45.3,29.88,East,98,1.0,1.0,92,0.00,,,0.00,Wunderground v.1.15,2013-04-15 07:55:00,
2013-04-15 01:05:00,47.4,44.9,29.88,ESE,113,0.0,1.0,91,0.00,,,0.00,Wunderground v.1.15,2013-04-15 08:05:00,
2013-04-15 01:10:00,47.4,44.9,29.88,ESE,116,0.0,0.0,91,0.00,,,0.00,Wunderground v.1.15,2013-04-15 08:10:00,
2013-04-15 01:15:00,47.3,44.8,29.88,WNW,303,1.0,1.0,91,0.00,,,0.00,Wunderground v.1.15,2013-04-15 08:15:00,
2013-04-15 01:20:00,47.4,44.9,29.88,NNW,342,1.0,1.0,91,0.00,,,0.00,Wunderground v.1.15,2013-04-15 08:20:00,
2013-04-15 01:25:00,47.4,44.9,29.88,WNW,301,1.0,5.0,91,0.00,,,0.00,Wunderground v.1.15,2013-04-15 08:25:00,
2013-04-15 01:35:00,47.4,44.9,29.88,WNW,298,2.0,4.0,91,0.00,,,0.00,Wunderground v.1.15,2013-04-15 08:35:00,
2013-04-15 01:40:00,47.4,44.9,29.88,NW,321,2.0,2.0,91,0.00,,,0.00,Wunderground v.1.15,2013-04-15 08:40:00,
2013-04-15 01:45:00,47.5,45.0,29.88,WNW,295,2.0,3.0,91,0.00,,,0.00,Wunderground v.1.15,2013-04-15 08:45:00,
2013-04-15 01:50:00,47.5,45.0,29.88,NNW,333,2.0,2.0,91,0.00,,,0.00,Wunderground v.1.15,2013-04-15 08:50:00,
2013-04-15 01:55:00,47.4,44.9,29.88,NNW,344,1.0,2.0,91,0.00,,,0.00,Wunderground v.1.15,2013-04-15 08:55:00,
2013-04-15 02:00:00,47.3,44.8,29.88,WNW,286,0.0,0.0,91,0.00,,,0.00,Wunderground v.1.15,2013-04-15 09:00:00,
2013-04-15 02:05:00,47.3,44.8,29.88,NNW,335,0.0,1.0,91,0.00,,,0.00,Wunderground v.1.15,2013-04-15 09:05:00,
2013-04-15 02:10:00,47.2,44.7,29.88,WNW,286,0.0,0.0,91,0.00,,,0.00,Wunderground v.1.15,2013-04-15 09:10:00,
2013-04-15 02:15:00,47.2,44.7,29.88,NW,313,0.0,0.0,91,0.00,,,0.00,Wunderground v.1.15,2013-04-15 09:15:00,
2013-04-15 02:25:00,47.1,44.6,29.87,NNW,327,0.0,2.0,91,0.00,,,0.00,Wunderground v.1.15,2013-04-15 09:25:00,
2013-04-15 02:35:00,47.0,44.2,29.87,NW,309,0.0,0.0,90,0.00,,,0.00,Wunderground v.1.15,2013-04-15 09:35:00,
2013-04-15 02:45:00,46.9,44.1,29.88,NW,305,0.0,1.0,90,0.00,,,0.00,Wunderground v.1.15,2013-04-15 09:45:00,
2013-04-15 02:50:00,46.9,44.1,29.88,SW,234,0.0,0.0,90,0.00,,,0.00,Wunderground v.1.15,2013-04-15 09:50:00,
2013-04-15 02:55:00,46.8,44.0,29.88,NW,309,1.0,1.0,90,0.00,,,0.00,Wunderground v.1.15,2013-04-15 09:55:00,
2013-04-15 03:00:00,46.7,43.9,29.88,SW,232,1.0,1.0,90,0.00,,,0.00,Wunderground v.1.15,2013-04-15 10:00:00,
2013-04-15 03:10:00,46.4,43.3,29.88,WNW,298,1.0,1.0,89,0.00,,,0.00,Wunderground v.1.15,2013-04-15 10:10:00,
2013-04-15 03:15:00,46.1,43.0,29.88,WNW,288,1.0,1.0,89,0.00,,,0.00,Wunderground v.1.15,2013-04-15 10:15:00,
2013-04-15 03:20:00,45.9,42.8,29.88,SW,236,0.0,0.0,89,0.00,,,0.00,Wunderground v.1.15,2013-04-15 10:20:00,
2013-04-15 03:25:00,45.6,42.8,29.88,NW,305,0.0,0.0,90,0.00,,,0.00,Wunderground v.1.15,2013-04-15 10:25:00,
2013-04-15 03:35:00,45.1,42.3,29.88,WNW,302,0.0,0.0,90,0.00,,,0.00,Wunderground v.1.15,2013-04-15 10:35:00,
2013-04-15 03:40:00,44.9,42.1,29.88,West,263,0.0,0.0,90,0.00,,,0.00,Wunderground v.1.15,2013-04-15 10:40:00,
2013-04-15 03:45:00,44.6,41.8,29.88,NW,305,0.0,1.0,90,0.00,,,0.00,Wunderground v.1.15,2013-04-15 10:45:00,
2013-04-15 03:50:00,44.5,41.7,29.88,SW,234,0.0,0.0,90,0.00,,,0.00,Wunderground v.1.15,2013-04-15 10:50:00,
2013-04-15 03:55:00,44.3,41.6,29.88,SW,233,0.0,0.0,90,0.00,,,0.00,Wunderground v.1.15,2013-04-15 10:55:00,
2013-04-15 04:00:00,44.2,41.5,29.88,NW,309,0.0,0.0,90,0.00,,,0.00,Wunderground v.1.15,2013-04-15 11:00:00,
2013-04-15 04:05:00,44.0,41.3,29.88,NW,306,0.0,0.0,90,0.00,,,0.00,Wunderground v.1.15,2013-04-15 11:05:00,
2013-04-15 04:10:00,43.8,41.1,29.88,NW,319,0.0,0.0,90,0.00,,,0.00,Wunderground v.1.15,2013-04-15 11:10:00,
2013-04-15 04:20:00,43.7,41.0,29.88,WSW,242,0.0,0.0,90,0.00,,,0.00,Wunderground v.1.15,2013-04-15 11:20:00,
2013-04-15 04:25:00,43.6,40.9,29.88,West,263,0.0,1.0,90,0.00,,,0.00,Wunderground v.1.15,2013-04-15 11:25:00,
2013-04-15 04:30:00,43.6,40.9,29.88,SSW,196,0.0,0.0,90,0.00,,,0.00,Wunderground v.1.15,2013-04-15 11:30:00,
2013-04-15 04:35:00,43.5,40.8,29.89,WSW,253,0.0,1.0,90,0.00,,,0.00,Wunderground v.1.15,2013-04-15 11:35:00,
2013-04-15 04:45:00,43.4,40.7,29.88,WSW,242,0.0,0.0,90,0.00,,,0.00,Wunderground v.1.15,2013-04-15 11:45:00,
2013-04-15 04:55:00,43.1,40.7,29.88,NW,308,0.0,0.0,91,0.00,,,0.00,Wunderground v.1.15,2013-04-15 11:55:00,
2013-04-15 05:00:00,43.0,40.6,29.88,West,275,0.0,0.0,91,0.00,,,0.00,Wunderground v.1.15,2013-04-15 12:00:00,
2013-04-15 05:05:00,42.9,40.5,29.88,WSW,252,0.0,0.0,91,0.00,,,0.00,Wunderground v.1.15,2013-04-15 12:05:00,
2013-04-15 05:10:00,42.7,40.3,29.88,WSW,252,0.0,0.0,91,0.00,,,0.00,Wunderground v.1.15,2013-04-15 12:10:00,
2013-04-15 05:15:00,42.6,40.2,29.88,WNW,303,0.0,0.0,91,0.00,,,0.00,Wunderground v.1.15,2013-04-15 12:15:00,
2013-04-15 05:20:00,42.5,40.3,29.88,NNW,333,0.0,0.0,92,0.00,,,0.00,Wunderground v.1.15,2013-04-15 12:20:00,
2013-04-15 05:25:00,42.4,40.0,29.88,NNW,333,0.0,0.0,91,0.00,,,0.00,Wunderground v.1.15,2013-04-15 12:25:00,
2013-04-15 05:30:00,42.3,39.9,29.88,NNW,333,0.0,0.0,91,0.00,,,0.00,Wunderground v.1.15,2013-04-15 12:30:00,
2013-04-15 05:40:00,42.2,40.0,29.88,South,169,0.0,0.0,92,0.00,,,0.00,Wunderground v.1.15,2013-04-15 12:40:00,
2013-04-15 05:45:00,42.3,40.1,29.89,SSE,165,0.0,0.0,92,0.00,,,0.00,Wunderground v.1.15,2013-04-15 12:45:00,
2013-04-15 05:50:00,42.2,40.0,29.89,North,350,0.0,0.0,92,0.00,,,0.00,Wunderground v.1.15,2013-04-15 12:50:00,
2013-04-15 05:55:00,42.1,39.9,29.89,WNW,289,0.0,2.0,92,0.00,,,0.00,Wunderground v.1.15,2013-04-15 12:55:00,
2013-04-15 06:00:00,42.1,39.9,29.89,NW,317,0.0,1.0,92,0.00,,,0.00,Wunderground v.1.15,2013-04-15 13:00:00,
2013-04-15 06:10:00,42.2,40.0,29.89,NW,315,0.0,0.0,92,0.00,,,0.00,Wunderground v.1.15,2013-04-15 13:10:00,
2013-04-15 06:15:00,42.2,39.8,29.89,WNW,299,0.0,0.0,91,0.00,,,0.00,Wunderground v.1.15,2013-04-15 13:15:00,
2013-04-15 06:25:00,42.1,39.7,29.89,ESE,105,0.0,0.0,91,0.00,,,0.00,Wunderground v.1.15,2013-04-15 13:25:00,
2013-04-15 06:30:00,42.1,39.7,29.90,ESE,105,0.0,0.0,91,0.00,,,0.00,Wunderground v.1.15,2013-04-15 13:30:00,
2013-04-15 06:35:00,42.0,39.8,29.90,ESE,105,0.0,0.0,92,0.00,,,0.00,Wunderground v.1.15,2013-04-15 13:35:00,
2013-04-15 06:40:00,41.9,39.7,29.90,ESE,105,0.0,0.0,92,0.00,,,0.00,Wunderground v.1.15,2013-04-15 13:40:00,
2013-04-15 06:50:00,41.8,39.6,29.90,South,172,0.0,0.0,92,0.00,,,0.00,Wunderground v.1.15,2013-04-15 13:50:00,
2013-04-15 07:00:00,41.9,39.7,29.90,NNW,342,0.0,2.0,92,0.00,,,0.00,Wunderground v.1.15,2013-04-15 14:00:00,
2013-04-15 07:05:00,42.0,39.8,29.90,NNW,345,0.0,2.0,92,0.00,,,0.00,Wunderground v.1.15,2013-04-15 14:05:00,
2013-04-15 07:10:00,42.1,39.9,29.91,NNW,345,0.0,0.0,92,0.00,,,0.00,Wunderground v.1.15,2013-04-15 14:10:00,
2013-04-15 07:20:00,42.6,40.4,29.91,WNW,300,0.0,0.0,92,0.00,,,0.00,Wunderground v.1.15,2013-04-15 14:20:00,
2013-04-15 07:25:00,43.0,40.8,29.91,WNW,300,0.0,0.0,92,0.00,,,0.00,Wunderground v.1.15,2013-04-15 14:25:00,
2013-04-15 07:30:00,43.2,40.8,29.91,WSW,244,0.0,0.0,91,0.00,,,0.00,Wunderground v.1.15,2013-04-15 14:30:00,
2013-04-15 07:35:00,43.4,40.7,29.92,SSW,196,0.0,0.0,90,0.00,,,0.00,Wunderground v.1.15,2013-04-15 14:35:00,
2013-04-15 07:40:00,43.5,40.8,29.92,WNW,290,0.0,1.0,90,0.00,,,0.00,Wunderground v.1.15,2013-04-15 14:40:00,
2013-04-15 07:45:00,43.6,40.9,29.92,WNW,288,0.0,1.0,90,0.00,,,0.00,Wunderground v.1.15,2013-04-15 14:45:00,
2013-04-15 07:50:00,43.7,40.7,29.92,WNW,300,0.0,0.0,89,0.00,,,0.00,Wunderground v.1.15,2013-04-15 14:50:00,
2013-04-15 08:00:00,44.1,40.8,29.92,NNW,331,1.0,1.0,88,0.00,,,0.00,Wunderground v.1.15,2013-04-15 15:00:00,
2013-04-15 08:05:00,44.2,40.6,29.92,NW,319,1.0,1.0,87,0.00,,,0.00,Wunderground v.1.15,2013-04-15 15:05:00,
2013-04-15 08:15:00,44.2,40.6,29.92,NW,312,1.0,4.0,87,0.00,,,0.00,Wunderground v.1.15,2013-04-15 15:15:00,
2013-04-15 08:20:00,44.3,40.4,29.92,NW,316,1.0,1.0,86,0.00,,,0.00,Wunderground v.1.15,2013-04-15 15:20:00,
2013-04-15 08:30:00,44.7,40.5,29.92,SSW,211,1.0,1.0,85,0.00,,,0.00,Wunderground v.1.15,2013-04-15 15:30:00,
2013-04-15 08:35:00,45.1,40.9,29.93,NW,306,1.0,1.0,85,0.00,,,0.00,Wunderground v.1.15,2013-04-15 15:35:00,
2013-04-15 08:40:00,45.6,40.7,29.93,WNW,293,0.0,2.0,83,0.00,,,0.00,Wunderground v.1.15,2013-04-15 15:40:00,
2013-04-15 08:50:00,46.1,40.6,29.93,NW,307,1.0,3.0,81,0.00,,,0.00,Wunderground v.1.15,2013-04-15 15:50:00,
2013-04-15 08:55:00,46.0,39.9,29.93,NW,309,1.0,3.0,79,0.00,,,0.00,Wunderground v.1.15,2013-04-15 15:55:00,
2013-04-15 09:05:00,46.3,39.8,29.92,ESE,112,2.0,2.0,78,0.00,,,0.00,Wunderground v.1.15,2013-04-15 16:05:00,
2013-04-15 09:10:00,46.7,40.2,29.92,SW,219,2.0,2.0,78,0.00,,,0.00,Wunderground v.1.15,2013-04-15 16:10:00,
2013-04-15 09:15:00,47.0,40.5,29.92,SW,221,2.0,2.0,78,0.00,,,0.00,Wunderground v.1.15,2013-04-15 16:15:00,
2013-04-15 09:25:00,48.1,40.9,29.92,WSW,252,1.0,2.0,76,0.00,,,0.00,Wunderground v.1.15,2013-04-15 16:25:00,
2013-04-15 09:30:00,48.6,40.3,29.92,WNW,284,1.0,5.0,73,0.00,,,0.00,Wunderground v.1.15,2013-04-15 16:30:00,
2013-04-15 09:35:00,48.7,40.4,29.93,West,261,2.0,5.0,73,0.00,,,0.00,Wunderground v.1.15,2013-04-15 16:35:00,
2013-04-15 09:40:00,48.7,40.1,29.93,WNW,301,2.0,2.0,72,0.00,,,0.00,Wunderground v.1.15,2013-04-15 16:40:00,
2013-04-15 09:50:00,49.2,40.6,29.93,NW,320,2.0,2.0,72,0.00,,,0.00,Wunderground v.1.15,2013-04-15 16:50:00,
2013-04-15 09:55:00,49.4,40.0,29.93,East,96,2.0,2.0,70,0.00,,,0.00,Wunderground v.1.15,2013-04-15 16:55:00,
2013-04-15 10:00:00,49.4,40.4,29.93,WNW,300,2.0,3.0,71,0.00,,,0.00,Wunderground v.1.15,2013-04-15 17:00:00,
2013-04-15 10:05:00,49.6,40.2,29.93,WNW,302,2.0,3.0,70,0.00,,,0.00,Wunderground v.1.15,2013-04-15 17:05:00,
2013-04-15 10:10:00,50.2,40.8,29.93,East,92,1.0,1.0,70,0.00,,,0.00,Wunderground v.1.15,2013-04-15 17:10:00,
2013-04-15 10:20:00,51.1,40.5,29.93,ESE,103,1.0,1.0,67,0.00,,,0.00,Wunderground v.1.15,2013-04-15 17:20:00,
2013-04-15 10:25:00,51.6,40.2,29.93,NNW,338,1.0,1.0,65,0.00,,,0.00,Wunderground v.1.15,2013-04-15 17:25:00,
2013-04-15 10:30:00,51.7,39.9,29.93,West,276,1.0,2.0,64,0.00,,,0.00,Wunderground v.1.15,2013-04-15 17:30:00,
2013-04-15 10:35:00,51.4,40.0,29.93,NW,315,2.0,3.0,65,0.00,,,0.00,Wunderground v.1.15,2013-04-15 17:35:00,
2013-04-15 10:40:00,51.5,40.1,29.93,ESE,105,2.0,2.0,65,0.00,,,0.00,Wunderground v.1.15,2013-04-15 17:40:00,
2013-04-15 10:45:00,51.6,39.4,29.93,NW,312,2.0,2.0,63,0.00,,,0.00,Wunderground v.1.15,2013-04-15 17:45:00,
2013-04-15 10:50:00,51.9,40.1,29.93,SW,236,2.0,2.0,64,0.00,,,0.00,Wunderground v.1.15,2013-04-15 17:50:00,
2013-04-15 11:00:00,52.6,39.9,29.93,WSW,237,1.0,1.0,62,0.00,,,0.00,Wunderground v.1.15,2013-04-15 18:00:00,
2013-04-15 11:05:00,53.2,40.1,29.93,NW,311,1.0,1.0,61,0.00,,,0.00,Wunderground v.1.15,2013-04-15 18:05:00,
2013-04-15 11:10:00,53.8,39.8,29.93,NW,309,2.0,3.0,59,0.00,,,0.00,Wunderground v.1.15,2013-04-15 18:10:00,
2013-04-15 11:15:00,53.6,40.0,29.93,NNW,327,2.0,3.0,60,0.00,,,0.00,Wunderground v.1.15,2013-04-15 18:15:00,
2013-04-15 11:25:00,55.0,40.9,29.93,East,80,1.0,2.0,59,0.00,,,0.00,Wunderground v.1.15,2013-04-15 18:25:00,
2013-04-15 11:30:00,55.1,40.6,29.94,West,279,1.0,2.0,58,0.00,,,0.00,Wunderground v.1.15,2013-04-15 18:30:00,
2013-04-15 11:35:00,54.8,40.3,29.94,SSW,207,2.0,2.0,58,0.00,,,0.00,Wunderground v.1.15,2013-04-15 18:35:00,
2013-04-15 11:40:00,55.7,40.7,29.94,West,271,1.0,2.0,57,0.00,,,0.00,Wunderground v.1.15,2013-04-15 18:40:00,
2013-04-15 11:45:00,55.0,39.6,29.93,North,360,2.0,3.0,56,0.00,,,0.00,Wunderground v.1.15,2013-04-15 18:45:00,
2013-04-15 11:50:00,54.8,39.8,29.94,West,276,2.0,2.0,57,0.00,,,0.00,Wunderground v.1.15,2013-04-15 18:50:00,
2013-04-15 11:55:00,54.8,40.3,29.94,West,266,1.0,2.0,58,0.00,,,0.00,Wunderground v.1.15,2013-04-15 18:55:00,
2013-04-15 12:05:00,55.5,40.0,29.93,NW,315,2.0,6.0,56,0.00,,,0.00,Wunderground v.1.15,2013-04-15 19:05:00,
2013-04-15 12:10:00,54.8,40.3,29.93,WSW,243,2.0,3.0,58,0.00,,,0.00,Wunderground v.1.15,2013-04-15 19:10:00,
2013-04-15 12:15:00,55.3,40.3,29.93,WSW,250,2.0,3.0,57,0.00,,,0.00,Wunderground v.1.15,2013-04-15 19:15:00,
2013-04-15 12:25:00,56.9,40.4,29.93,WNW,288,1.0,3.0,54,0.00,,,0.00,Wunderground v.1.15,2013-04-15 19:25:00,
2013-04-15 12:30:00,57.7,40.2,29.93,North,5,0.0,0.0,52,0.00,,,0.00,Wunderground v.1.15,2013-04-15 19:30:00,
2013-04-15 12:35:00,56.0,39.1,29.93,NW,324,2.0,2.0,53,0.00,,,0.00,Wunderground v.1.15,2013-04-15 19:35:00,
2013-04-15 12:45:00,56.4,40.4,29.93,WSW,253,2.0,2.0,55,0.00,,,0.00,Wunderground v.1.15,2013-04-15 19:45:00,
2013-04-15 12:55:00,57.7,39.7,29.93,East,96,2.0,2.0,51,0.00,,,0.00,Wunderground v.1.15,2013-04-15 19:55:00,
2013-04-15 13:05:00,56.6,39.2,29.93,NW,324,3.0,4.0,52,0.00,,,0.00,Wunderground v.1.15,2013-04-15 20:05:00,
2013-04-15 13:10:00,56.4,40.4,29.92,NW,310,2.0,7.0,55,0.00,,,0.00,Wunderground v.1.15,2013-04-15 20:10:00,
2013-04-15 13:15:00,56.2,39.8,29.92,ESE,106,1.0,7.0,54,0.00,,,0.00,Wunderground v.1.15,2013-04-15 20:15:00,
2013-04-15 13:20:00,57.2,39.7,29.92,West,263,2.0,4.0,52,0.00,,,0.00,Wunderground v.1.15,2013-04-15 20:20:00,
2013-04-15 13:25:00,57.0,40.0,29.92,NNW,333,2.0,4.0,53,0.00,,,0.00,Wunderground v.1.15,2013-04-15 20:25:00,
2013-04-15 13:35:00,57.1,39.6,29.92,SSW,196,2.0,2.0,52,0.00,,,0.00,Wunderground v.1.15,2013-04-15 20:35:00,
2013-04-15 13:40:00,57.5,38.5,29.92,WNW,292,2.0,5.0,49,0.00,,,0.00,Wunderground v.1.15,2013-04-15 20:40:00,
2013-04-15 13:45:00,57.8,39.8,29.91,SW,219,3.0,5.0,51,0.00,,,0.00,Wunderground v.1.15,2013-04-15 20:45:00,
2013-04-15 13:50:00,58.3,38.7,29.92,WNW,283,2.0,2.0,48,0.00,,,0.00,Wunderground v.1.15,2013-04-15 20:50:00,
2013-04-15 13:55:00,58.7,39.0,29.92,WSW,250,2.0,3.0,48,0.00,,,0.00,Wunderground v.1.15,2013-04-15 20:55:00,
2013-04-15 14:00:00,58.7,38.5,29.91,WSW,248,3.0,3.0,47,0.00,,,0.00,Wunderground v.1.15,2013-04-15 21:00:00,
2013-04-15 14:05:00,58.1,38.5,29.91,South,178,3.0,3.0,48,0.00,,,0.00,Wunderground v.1.15,2013-04-15 21:05:00,
2013-04-15 14:15:00,58.4,37.7,29.91,South,184,3.0,4.0,46,0.00,,,0.00,Wunderground v.1.15,2013-04-15 21:15:00,
2013-04-15 14:20:00,58.6,36.7,29.91,North,360,3.0,3.0,44,0.00,,,0.00,Wunderground v.1.15,2013-04-15 21:20:00,
2013-04-15 14:25:00,58.7,38.0,29.91,West,260,3.0,6.0,46,0.00,,,0.00,Wunderground v.1.15,2013-04-15 21:25:00,
2013-04-15 14:35:00,58.0,38.4,29.90,NNW,344,3.0,3.0,48,0.00,,,0.00,Wunderground v.1.15,2013-04-15 21:35:00,
2013-04-15 14:40:00,58.8,38.1,29.90,WNW,282,1.0,5.0,46,0.00,,,0.00,Wunderground v.1.15,2013-04-15 21:40:00,
2013-04-15 14:50:00,58.1,38.5,29.90,West,280,4.0,4.0,48,0.00,,,0.00,Wunderground v.1.15,2013-04-15 21:50:00,
2013-04-15 14:55:00,57.7,38.7,29.90,SE,145,4.0,4.0,49,0.00,,,0.00,Wunderground v.1.15,2013-04-15 21:55:00,
2013-04-15 15:05:00,56.2,37.8,29.90,NW,312,5.0,6.0,50,0.00,,,0.00,Wunderground v.1.15,2013-04-15 22:05:00,
2013-04-15 15:10:00,56.5,38.1,29.90,NNE,24,4.0,4.0,50,0.00,,,0.00,Wunderground v.1.15,2013-04-15 22:10:00,
2013-04-15 15:15:00,56.9,38.9,29.90,West,276,2.0,4.0,51,0.00,,,0.00,Wunderground v.1.15,2013-04-15 22:15:00,
2013-04-15 15:20:00,56.7,38.3,29.90,ESE,110,3.0,4.0,50,0.00,,,0.00,Wunderground v.1.15,2013-04-15 22:20:00,
2013-04-15 15:25:00,56.7,38.3,29.90,SE,146,3.0,4.0,50,0.00,,,0.00,Wunderground v.1.15,2013-04-15 22:25:00,
2013-04-15 15:35:00,56.9,37.4,29.90,South,189,3.0,5.0,48,0.00,,,0.00,Wunderground v.1.15,2013-04-15 22:35:00,
2013-04-15 15:40:00,57.0,37.0,29.90,WSW,247,3.0,5.0,47,0.00,,,0.00,Wunderground v.1.15,2013-04-15 22:40:00,
2013-04-15 15:45:00,56.5,36.5,29.89,SSE,167,4.0,5.0,47,0.00,,,0.00,Wunderground v.1.15,2013-04-15 22:45:00,
2013-04-15 15:50:00,55.7,37.3,29.89,NNW,346,4.0,4.0,50,0.00,,,0.00,Wunderground v.1.15,2013-04-15 22:50:00,
2013-04-15 15:55:00,56.1,37.7,29.89,SW,221,4.0,4.0,50,0.00,,,0.00,Wunderground v.1.15,2013-04-15 22:55:00,
2013-04-15 16:05:00,55.9,37.0,29.89,South,179,3.0,5.0,49,0.00,,,0.00,Wunderground v.1.15,2013-04-15 23:05:00,
2013-04-15 16:10:00,55.7,35.8,29.89,North,5,3.0,3.0,47,0.00,,,0.00,Wunderground v.1.15,2013-04-15 23:10:00,
2013-04-15 16:15:00,55.2,34.8,29.89,NNW,329,4.0,9.0,46,0.00,,,0.00,Wunderground v.1.15,2013-04-15 23:15:00,
2013-04-15 16:20:00,54.2,34.9,29.89,SSW,205,5.0,9.0,48,0.00,,,0.00,Wunderground v.1.15,2013-04-15 23:20:00,
2013-04-15 16:30:00,54.1,34.8,29.88,WNW,300,6.0,6.0,48,0.00,,,0.00,Wunderground v.1.15,2013-04-15 23:30:00,
2013-04-15 16:35:00,54.4,35.1,29.88,West,264,5.0,6.0,48,0.00,,,0.00,Wunderground v.1.15,2013-04-15 23:35:00,
2013-04-15 16:40:00,54.4,35.6,29.88,NNW,341,4.0,4.0,49,0.00,,,0.00,Wunderground v.1.15,2013-04-15 23:40:00,
2013-04-15 16:50:00,54.4,34.6,29.88,WNW,292,4.0,4.0,47,0.00,,,0.00,Wunderground v.1.15,2013-04-15 23:50:00,
2013-04-15 16:55:00,53.7,34.5,29.88,SSE,159,5.0,5.0,48,0.00,,,0.00,Wunderground v.1.15,2013-04-15 23:55:00,
2013-04-15 17:05:00,53.3,34.1,29.88,WSW,241,4.0,5.0,48,0.00,,,0.00,Wunderground v.1.15,2013-04-16 00:05:00,
2013-04-15 17:10:00,53.4,33.7,29.88,WNW,282,4.0,11.0,47,0.00,,,0.00,Wunderground v.1.15,2013-04-16 00:10:00,
2013-04-15 17:15:00,53.3,33.6,29.88,WNW,301,4.0,11.0,47,0.00,,,0.00,Wunderground v.1.15,2013-04-16 00:15:00,
2013-04-15 17:20:00,52.8,33.6,29.88,NW,306,5.0,5.0,48,0.00,,,0.00,Wunderground v.1.15,2013-04-16 00:20:00,
2013-04-15 17:25:00,52.7,34.1,29.89,NNW,347,5.0,5.0,49,0.00,,,0.00,Wunderground v.1.15,2013-04-16 00:25:00,
2013-04-15 17:35:00,52.1,34.5,29.88,NNW,348,4.0,4.0,51,0.00,,,0.00,Wunderground v.1.15,2013-04-16 00:35:00,
2013-04-15 17:40:00,51.9,34.8,29.88,North,5,4.0,4.0,52,0.00,,,0.00,Wunderground v.1.15,2013-04-16 00:40:00,
2013-04-15 17:45:00,51.9,35.3,29.88,North,355,3.0,4.0,53,0.00,,,0.00,Wunderground v.1.15,2013-04-16 00:45:00,
2013-04-15 17:55:00,51.5,36.3,29.89,WNW,300,3.0,10.0,56,0.00,,,0.00,Wunderground v.1.15,2013-04-16 00:55:00,
2013-04-15 18:00:00,51.4,36.2,29.89,SW,227,3.0,7.0,56,0.00,,,0.00,Wunderground v.1.15,2013-04-16 01:00:00,
2013-04-15 18:05:00,51.2,36.5,29.89,WSW,248,2.0,7.0,57,0.00,,,0.00,Wunderground v.1.15,2013-04-16 01:05:00,
2013-04-15 18:15:00,50.4,36.6,29.89,WNW,293,4.0,4.0,59,0.00,,,0.00,Wunderground v.1.15,2013-04-16 01:15:00,
2013-04-15 18:20:00,50.1,36.7,29.89,WSW,254,3.0,3.0,60,0.00,,,0.00,Wunderground v.1.15,2013-04-16 01:20:00,
2013-04-15 18:25:00,49.8,36.9,29.89,NNW,335,3.0,3.0,61,0.00,,,0.00,Wunderground v.1.15,2013-04-16 01:25:00,
2013-04-15 18:35:00,49.4,36.5,29.88,WNW,300,3.0,5.0,61,0.00,,,0.00,Wunderground v.1.15,2013-04-16 01:35:00,
2013-04-15 18:40:00,49.3,36.8,29.88,NNW,335,3.0,3.0,62,0.00,,,0.00,Wunderground v.1.15,2013-04-16 01:40:00,
2013-04-15 18:45:00,49.1,36.6,29.89,West,261,3.0,3.0,62,0.00,,,0.00,Wunderground v.1.15,2013-04-16 01:45:00,
2013-04-15 18:50:00,49.0,36.5,29.89,NW,318,2.0,2.0,62,0.00,,,0.00,Wunderground v.1.15,2013-04-16 01:50:00,
2013-04-15 19:00:00,48.7,36.3,29.89,North,5,3.0,4.0,62,0.00,,,0.00,Wunderground v.1.15,2013-04-16 02:00:00,
2013-04-15 19:05:00,48.5,36.1,29.89,North,360,3.0,4.0,62,0.00,,,0.00,Wunderground v.1.15,2013-04-16 02:05:00,
2013-04-15 19:10:00,48.3,36.3,29.89,North,355,3.0,3.0,63,0.00,,,0.00,Wunderground v.1.15,2013-04-16 02:10:00,
2013-04-15 19:15:00,48.1,36.5,29.89,NW,310,3.0,3.0,64,0.00,,,0.00,Wunderground v.1.15,2013-04-16 02:15:00,
2013-04-15 19:25:00,47.7,36.1,29.89,NW,311,2.0,5.0,64,0.00,,,0.00,Wunderground v.1.15,2013-04-16 02:25:00,
2013-04-15 19:30:00,47.5,36.3,29.89,WNW,300,2.0,2.0,65,0.00,,,0.00,Wunderground v.1.15,2013-04-16 02:30:00,
2013-04-15 19:40:00,47.0,36.2,29.89,SE,142,2.0,2.0,66,0.00,,,0.00,Wunderground v.1.15,2013-04-16 02:40:00,
2013-04-15 19:45:00,46.8,36.4,29.90,WNW,295,2.0,2.0,67,0.00,,,0.00,Wunderground v.1.15,2013-04-16 02:45:00,
2013-04-15 19:50:00,46.6,36.2,29.90,WNW,284,2.0,3.0,67,0.00,,,0.00,Wunderground v.1.15,2013-04-16 02:50:00,
2013-04-15 20:00:00,46.1,36.1,29.90,NW,322,1.0,1.0,68,0.00,,,0.00,Wunderground v.1.15,2013-04-16 03:00:00,
2013-04-15 20:05:00,46.0,36.4,29.90,East,85,1.0,2.0,69,0.00,,,0.00,Wunderground v.1.15,2013-04-16 03:05:00,
2013-04-15 20:10:00,45.8,36.2,29.90,West,276,1.0,3.0,69,0.00,,,0.00,Wunderground v.1.15,2013-04-16 03:10:00,
2013-04-15 20:15:00,45.7,36.5,29.90,SW,234,1.0,3.0,70,0.00,,,0.00,Wunderground v.1.15,2013-04-16 03:15:00,
2013-04-15 20:20:00,45.5,36.3,29.91,NNW,338,1.0,1.0,70,0.00,,,0.00,Wunderground v.1.15,2013-04-16 03:20:00,
2013-04-15 20:30:00,45.4,36.5,29.91,NW,320,1.0,1.0,71,0.00,,,0.00,Wunderground v.1.15,2013-04-16 03:30:00,
2013-04-15 20:35:00,45.2,36.7,29.91,WSW,254,1.0,1.0,72,0.00,,,0.00,Wunderground v.1.15,2013-04-16 03:35:00,
2013-04-15 20:40:00,45.2,36.7,29.92,NW,316,1.0,1.0,72,0.00,,,0.00,Wunderground v.1.15,2013-04-16 03:40:00,
2013-04-15 20:50:00,45.1,37.0,29.92,SSE,156,0.0,0.0,73,0.00,,,0.00,Wunderground v.1.15,2013-04-16 03:50:00,
2013-04-15 20:55:00,44.9,36.8,29.92,NW,318,0.0,1.0,73,0.00,,,0.00,Wunderground v.1.15,2013-04-16 03:55:00,
2013-04-15 21:00:00,44.9,37.1,29.93,SE,140,1.0,1.0,74,0.00,,,0.00,Wunderground v.1.15,2013-04-16 04:00:00,
2013-04-15 21:05:00,44.8,37.0,29.94,SE,143,0.0,1.0,74,0.00,,,0.00,Wunderground v.1.15,2013-04-16 04:05:00,
2013-04-15 21:15:00,44.7,36.9,29.94,West,259,0.0,0.0,74,0.00,,,0.00,Wunderground v.1.15,2013-04-16 04:15:00,
2013-04-15 21:20:00,44.7,36.9,29.94,WSW,240,0.0,0.0,74,0.00,,,0.00,Wunderground v.1.15,2013-04-16 04:20:00,
2013-04-15 21:25:00,44.7,36.9,29.95,South,169,0.0,0.0,74,0.00,,,0.00,Wunderground v.1.15,2013-04-16 04:25:00,
2013-04-15 21:30:00,44.7,36.9,29.95,WSW,255,0.0,0.0,74,0.00,,,0.00,Wunderground v.1.15,2013-04-16 04:30:00,
2013-04-15 21:35:00,44.9,36.8,29.95,West,281,0.0,0.0,73,0.00,,,0.00,Wunderground v.1.15,2013-04-16 04:35:00,
2013-04-15 21:40:00,44.9,36.8,29.95,West,271,0.0,0.0,73,0.00,,,0.00,Wunderground v.1.15,2013-04-16 04:40:00,
2013-04-15 21:45:00,45.0,37.2,29.96,NW,320,0.0,0.0,74,0.00,,,0.00,Wunderground v.1.15,2013-04-16 04:45:00,
2013-04-15 21:50:00,45.1,37.0,29.96,WSW,251,0.0,0.0,73,0.00,,,0.00,Wunderground v.1.15,2013-04-16 04:50:00,
2013-04-15 21:55:00,45.1,37.3,29.97,West,267,0.0,1.0,74,0.00,,,0.00,Wunderground v.1.15,2013-04-16 04:55:00,
2013-04-15 22:05:00,45.0,38.2,29.96,NW,321,1.0,1.0,77,0.00,,,0.00,Wunderground v.1.15,2013-04-16 05:05:00,
2013-04-15 22:10:00,45.0,38.6,29.96,WNW,290,1.0,1.0,78,0.00,,,0.00,Wunderground v.1.15,2013-04-16 05:10:00,
2013-04-15 22:15:00,45.0,38.2,29.97,WSW,253,1.0,1.0,77,0.00,,,0.00,Wunderground v.1.15,2013-04-16 05:15:00,
2013-04-15 22:20:00,45.0,38.2,29.97,West,280,1.0,2.0,77,0.00,,,0.00,Wunderground v.1.15,2013-04-16 05:20:00,
2013-04-15 22:30:00,44.9,38.1,29.97,NW,311,0.0,2.0,77,0.00,,,0.00,Wunderground v.1.15,2013-04-16 05:30:00,
2013-04-15 22:35:00,45.0,37.9,29.97,WNW,300,1.0,2.0,76,0.00,,,0.00,Wunderground v.1.15,2013-04-16 05:35:00,
2013-04-15 22:40:00,45.0,37.6,29.97,West,274,1.0,2.0,75,0.00,,,0.00,Wunderground v.1.15,2013-04-16 05:40:00,
2013-04-15 22:45:00,45.1,37.3,29.97,ESE,118,1.0,2.0,74,0.00,,,0.00,Wunderground v.1.15,2013-04-16 05:45:00,
2013-04-15 22:50:00,45.1,37.0,29.97,WNW,283,1.0,7.0,73,0.00,,,0.00,Wunderground v.1.15,2013-04-16 05:50:00,
2013-04-15 22:55:00,45.1,37.0,29.97,WNW,292,1.0,7.0,73,0.00,,,0.00,Wunderground v.1.15,2013-04-16 05:55:00,
2013-04-15 23:05:00,45.0,36.5,29.97,WNW,292,1.0,5.0,72,0.00,,,0.00,Wunderground v.1.15,2013-04-16 06:05:00,
2013-04-15 23:10:00,44.9,36.4,29.97,SSE,154,1.0,1.0,72,0.00,,,0.00,Wunderground v.1.15,2013-04-16 06:10:00,
2013-04-15 23:15:00,44.8,36.7,29.97,WNW,292,1.0,1.0,73,0.00,,,0.00,Wunderground v.1.15,2013-04-16 06:15:00,
2013-04-15 23:25:00,44.7,36.2,29.97,WNW,284,1.0,1.0,72,0.00,,,0.00,Wunderground v.1.15,2013-04-16 06:25:00,
2013-04-15 23:30:00,44.7,36.6,29.97,WSW,251,1.0,1.0,73,0.00,,,0.00,Wunderground v.1.15,2013-04-16 06:30:00,
2013-04-15 23:35:00,44.6,36.1,29.97,WNW,284,0.0,1.0,72,0.00,,,0.00,Wunderground v.1.15,2013-04-16 06:35:00,
2013-04-15 23:45:00,44.5,36.4,29.97,West,259,0.0,3.0,73,0.00,,,0.00,Wunderground v.1.15,2013-04-16 06:45:00,
2013-04-15 23:50:00,44.5,36.0,29.97,North,351,1.0,1.0,72,0.00,,,0.00,Wunderground v.1.15,2013-04-16 06:50:00,
2013-04-15 23:55:00,44.5,36.0,29.98,WNW,301,1.0,1.0,72,0.00,,,0.00,Wunderground v.1.15,2013-04-16 06:55:00,